Butler, Illinois
Current Conditions -  °F | °C
As of 6:35 AM on Sunday 23 Nov 2014 (Local Time) from K3LF Reporting Station
Clear Clear  
Wind Chill: 43°   Ceiling: Unl
Heat Index: 48°   Visibility: 10mi
Dew Point: 43°   Wind: 13mph
Humidity: 81%   Direction: 150°SSE
Pressure: 29.75"   Gusts: NA
Location:  39.2°N, 89.53°W
Report Text: K3LF 231235Z AUTO 15011KT 10SM CLR 09/06 A2975 RMK AO2 T00910060
Loading
Personal Weather Stations






























Interactive Weather Map New forecast layout! Learn more

10-Day Weather Forecast

Advertisements
Track Severe Weather on mobile